Hauptseite
METAR-TAF:

METAR-TAF

Flughäfen :

Formosa, Argentinien

Breite: 26-12S, Länge: 058-14W, Höhe: 59 m

Beobachtung

Neuester Wetterbericht von vor 22 Minuten, um 02:00 UTC
Wind 8 kt aus Ost/Nordost
Temperatur 22°C
Luftfeuchtigkeit 78%
Luftdruck 1010 hPa
Sichtweite 10 km oder mehr
Leicht bewölkt in der Höhe von 2500 ft

METAR: SARF 230200Z 07008KT 9999 FEW025 22/18 Q1010

Zeit: 23:22 (02:22 UTC)

Prognose

Neuester Wetterbericht von vor 3 Stunden und 22 Minuten, um 23:00 UTC
Gültige Prognose vom 23 um 00 UTC bis 23 um 24 UTC
Wind 5 kt aus Nordost
Sichtweite 10 km oder mehr
keine Wolken unter 1500 m und keine Kumulonimbus oder Gewitterwolken

TAF: SARF 222300Z 2300/2324 05005KT CAVOK TX30/2318Z TN17/2310Z

Wetterbeobachtungen und Prognosen von mehr als 4000 Flughäfen (METAR und TAF Bericht).

Die verfügbaren Stationen werden durch gelbe und rote Markierungen auf der Karte dargestellt.

Führen Sie die Maus auf sie, um den Namen der Station zu sehen.

Darauf klicken, um die Beobachtung von Wetterbeobachtungen und Prognosen zu sehen.

Um die Karte zu ändern : klicken Sie auf den grünen Tasten mit einem schwarzen Kreuz Zum Vergrößern, auf den grünen Button mit einem Gedankenstrich zu verkleinern, oder auf die grünen Pfeile für benachbarte Karten.


METAR-TAF: